Procure no Apolo11
Meteógrafos Informações Meteorológicas em tempo real
Aeroporto de Congonhas
03-03-2024 22:55 BRT (UTC-3)

Temperatura atual: 22 graus 71 F    Umidade relativa: 88 %
Velocidade do vento: 02 nós 3 Km/h    Direção: ND graus ND
Ajuste do altímetro ..: 1018 HPA
Visibilidade: Ótima    Tempo presente: Céu Limpo

Observação
Data Hora BRTTempo°CUmidadePressãoVentoVisib.
03/03 - 21:55   Céu Limpo 22° 88% 1017 Sudeste/7 km/h CAVO
03/03 - 20:55   Poucas nuvens esparsas 22° 88% 1017 Sudeste/10 km/h OK
03/03 - 19:55   Muitas Nuvens 23° 83% 1017 Sul/12 km/h OK
03/03 - 18:55   Muitas Nuvens 23° 83% 1016 Sul/23 km/h OK
03/03 - 17:55   Muitas Nuvens 24° 78% 1016 Sul/18 km/h OK
03/03 - 16:55   Parcialmente Nublado 28° 61% 1015 Sul/21 km/h OK
03/03 - 15:55   Parcialmente Nublado 28° 61% 1015 Sul/21 km/h OK
03/03 - 14:55   Parcialmente Nublado 31° 38% 1015 Oeste/7 km/h 9999
03/03 - 13:55   Poucas nuvens esparsas 30° 42% 1016 Norte-nordeste/9 km/h 9999
03/03 - 12:55   Poucas nuvens esparsas 29° 51% 1016 /7 km/h OK
03/03 - 11:55   Não Disponível 27° 58% 1017 Norte/9 km/h 9999
03/03 - 10:55   Céu Limpo 25° 65% 1017 Norte-nordeste/10 km/h CAVO
03/03 - 09:55   Céu Limpo 23° 69% 1018 Este-nordeste/10 km/h CAVO
03/03 - 08:55   Céu Limpo 22° 73% 1018 Este-nordeste/10 km/h CAVO
03/03 - 07:55   Céu Limpo ND° ND% ND Este-nordeste/10 km/h CAVO
03/03 - 06:55   Não Disponível 20° 82% 1017 Este-nordeste/9 km/h 9999
03/03 - 05:55   Não Disponível 20° 82% 1017 Este-nordeste/9 km/h 9999
03/03 - 04:55   Parcialmente Nublado 21° 83% 1016 Este-nordeste/9 km/h 9999
03/03 - 03:55   Poucas nuvens esparsas 21° 77% 1016 Este-nordeste/12 km/h 9999
03/03 - 02:55   Céu Encoberto 21° 77% 1016 Leste/7 km/h 9999
03/03 - 01:55   Parcialmente Nublado 21° 77% 1017 Leste/9 km/h 9999
03/03 - 00:55   Não Disponível 21° 77% 1018 Leste/10 km/h 9999
02/03 - 23:55   Parcialmente Nublado 21° 77% 1018 Leste/12 km/h 9999
02/03 - 22:55   Parcialmente Nublado 21° 77% 1019 Este-sudeste/12 km/h OK

Termo de Uso  |   Links Úteis  |   Imprensa  |  Anuncie  |  Fale Conosco  |  Versão Celular  |   Política de Privacidade

Apolo11.com - Todos os direitos reservados - 2000 - 2024

"Entre os móveis de nossas casas, ocupa a cama um lugar extraordinário. É o móvel metafísico em que se realizam os mistérios do nascimento e da morte" - Thomas Mann -